sensor_id;sensor_type;location;lat;lon;timestamp;pressure;altitude;pressure_sealevel;temperature;humidity
21545;BME280;10933;50.754;11.508;2024-02-26T00:01:58;98065.25;;;-1.18;100.00
21545;BME280;10933;50.754;11.508;2024-02-26T00:04:25;98076.34;;;-0.96;100.00
21545;BME280;10933;50.754;11.508;2024-02-26T00:06:51;98070.88;;;-1.01;100.00
21545;BME280;10933;50.754;11.508;2024-02-26T00:09:20;98054.56;;;-0.98;100.00
21545;BME280;10933;50.754;11.508;2024-02-26T00:11:46;98057.00;;;-0.97;100.00
21545;BME280;10933;50.754;11.508;2024-02-26T00:14:12;98052.06;;;-0.93;100.00
21545;BME280;10933;50.754;11.508;2024-02-26T00:16:40;98055.59;;;-0.99;100.00
21545;BME280;10933;50.754;11.508;2024-02-26T00:19:11;98058.47;;;-1.07;100.00
21545;BME280;10933;50.754;11.508;2024-02-26T00:21:40;98046.97;;;-0.88;100.00
21545;BME280;10933;50.754;11.508;2024-02-26T00:24:08;98041.50;;;-0.93;100.00
21545;BME280;10933;50.754;11.508;2024-02-26T00:26:34;98040.47;;;-0.92;100.00
21545;BME280;10933;50.754;11.508;2024-02-26T00:29:00;98038.47;;;-0.97;100.00
21545;BME280;10933;50.754;11.508;2024-02-26T00:31:27;98039.13;;;-1.01;100.00
21545;BME280;10933;50.754;11.508;2024-02-26T00:33:53;98030.25;;;-1.13;100.00
21545;BME280;10933;50.754;11.508;2024-02-26T00:36:19;98027.28;;;-0.99;100.00
21545;BME280;10933;50.754;11.508;2024-02-26T00:38:45;98026.88;;;-1.02;100.00
21545;BME280;10933;50.754;11.508;2024-02-26T00:41:17;98012.69;;;-1.08;100.00
21545;BME280;10933;50.754;11.508;2024-02-26T00:43:43;98022.19;;;-1.32;100.00
21545;BME280;10933;50.754;11.508;2024-02-26T00:46:09;98022.03;;;-1.05;100.00
21545;BME280;10933;50.754;11.508;2024-02-26T00:48:35;98010.25;;;-1.09;100.00
21545;BME280;10933;50.754;11.508;2024-02-26T00:51:03;98013.50;;;-1.07;100.00
21545;BME280;10933;50.754;11.508;2024-02-26T00:53:31;98021.91;;;-1.17;100.00
21545;BME280;10933;50.754;11.508;2024-02-26T00:55:58;98022.13;;;-1.19;100.00
21545;BME280;10933;50.754;11.508;2024-02-26T00:58:27;98018.66;;;-1.19;100.00
21545;BME280;10933;50.754;11.508;2024-02-26T01:00:53;98018.91;;;-1.27;100.00
21545;BME280;10933;50.754;11.508;2024-02-26T01:03:20;98016.88;;;-1.25;100.00
21545;BME280;10933;50.754;11.508;2024-02-26T01:05:46;98027.06;;;-1.29;100.00
21545;BME280;10933;50.754;11.508;2024-02-26T01:08:12;98021.91;;;-1.55;100.00
21545;BME280;10933;50.754;11.508;2024-02-26T01:10:38;98028.03;;;-1.61;100.00
21545;BME280;10933;50.754;11.508;2024-02-26T01:13:04;98035.97;;;-1.61;100.00
21545;BME280;10933;50.754;11.508;2024-02-26T01:15:30;98040.25;;;-1.60;100.00
21545;BME280;10933;50.754;11.508;2024-02-26T01:17:57;98034.56;;;-1.64;100.00
21545;BME280;10933;50.754;11.508;2024-02-26T01:20:23;98028.88;;;-1.67;100.00
21545;BME280;10933;50.754;11.508;2024-02-26T01:22:49;98037.41;;;-1.65;100.00
21545;BME280;10933;50.754;11.508;2024-02-26T01:25:16;98036.56;;;-1.59;100.00
21545;BME280;10933;50.754;11.508;2024-02-26T01:27:42;98036.41;;;-1.64;100.00
21545;BME280;10933;50.754;11.508;2024-02-26T01:30:10;98024.53;;;-1.55;100.00
21545;BME280;10933;50.754;11.508;2024-02-26T01:32:36;98024.06;;;-1.39;100.00
21545;BME280;10933;50.754;11.508;2024-02-26T01:35:03;98016.63;;;-1.55;100.00
21545;BME280;10933;50.754;11.508;2024-02-26T01:37:29;98019.31;;;-1.68;100.00
21545;BME280;10933;50.754;11.508;2024-02-26T01:39:56;98023.78;;;-1.69;100.00
21545;BME280;10933;50.754;11.508;2024-02-26T01:42:22;98022.44;;;-1.85;100.00
21545;BME280;10933;50.754;11.508;2024-02-26T01:44:48;98015.91;;;-1.75;100.00
21545;BME280;10933;50.754;11.508;2024-02-26T01:47:14;98015.72;;;-1.81;100.00
21545;BME280;10933;50.754;11.508;2024-02-26T01:49:41;98016.38;;;-1.98;100.00
21545;BME280;10933;50.754;11.508;2024-02-26T01:52:09;98020.00;;;-1.93;100.00
21545;BME280;10933;50.754;11.508;2024-02-26T01:54:37;98014.38;;;-2.10;100.00
21545;BME280;10933;50.754;11.508;2024-02-26T01:57:05;98015.41;;;-2.17;100.00
21545;BME280;10933;50.754;11.508;2024-02-26T01:59:32;98029.00;;;-2.07;100.00
21545;BME280;10933;50.754;11.508;2024-02-26T02:02:01;98032.16;;;-1.79;100.00
21545;BME280;10933;50.754;11.508;2024-02-26T02:04:29;98029.53;;;-1.79;100.00
21545;BME280;10933;50.754;11.508;2024-02-26T02:06:56;98034.41;;;-1.75;100.00
21545;BME280;10933;50.754;11.508;2024-02-26T02:09:24;98035.81;;;-1.73;100.00
21545;BME280;10933;50.754;11.508;2024-02-26T02:11:50;98035.78;;;-1.66;100.00
21545;BME280;10933;50.754;11.508;2024-02-26T02:14:16;98039.44;;;-1.67;100.00
21545;BME280;10933;50.754;11.508;2024-02-26T02:16:42;98049.63;;;-1.64;100.00
21545;BME280;10933;50.754;11.508;2024-02-26T02:19:08;98043.31;;;-1.63;100.00
21545;BME280;10933;50.754;11.508;2024-02-26T02:21:34;98041.06;;;-1.66;100.00
21545;BME280;10933;50.754;11.508;2024-02-26T02:24:00;98027.44;;;-1.63;100.00
21545;BME280;10933;50.754;11.508;2024-02-26T02:26:26;98036.97;;;-1.56;100.00
21545;BME280;10933;50.754;11.508;2024-02-26T02:28:53;98035.56;;;-1.58;100.00
21545;BME280;10933;50.754;11.508;2024-02-26T02:31:19;98033.94;;;-1.66;100.00
21545;BME280;10933;50.754;11.508;2024-02-26T02:33:46;98038.25;;;-1.71;100.00
21545;BME280;10933;50.754;11.508;2024-02-26T02:36:12;98036.19;;;-1.69;100.00
21545;BME280;10933;50.754;11.508;2024-02-26T02:38:38;98032.59;;;-1.82;100.00
21545;BME280;10933;50.754;11.508;2024-02-26T02:41:14;98024.94;;;-2.10;100.00
21545;BME280;10933;50.754;11.508;2024-02-26T02:43:40;98032.22;;;-1.92;100.00
21545;BME280;10933;50.754;11.508;2024-02-26T02:46:06;98024.28;;;-1.92;100.00
21545;BME280;10933;50.754;11.508;2024-02-26T02:48:32;98024.09;;;-1.90;100.00
21545;BME280;10933;50.754;11.508;2024-02-26T02:50:58;98019.66;;;-2.03;100.00
21545;BME280;10933;50.754;11.508;2024-02-26T02:53:24;98015.19;;;-2.02;100.00
21545;BME280;10933;50.754;11.508;2024-02-26T02:55:50;98018.22;;;-1.99;100.00
21545;BME280;10933;50.754;11.508;2024-02-26T02:58:16;98012.50;;;-1.96;100.00
21545;BME280;10933;50.754;11.508;2024-02-26T03:00:42;98029.00;;;-2.00;100.00
21545;BME280;10933;50.754;11.508;2024-02-26T03:03:08;98019.47;;;-2.01;100.00
21545;BME280;10933;50.754;11.508;2024-02-26T03:05:34;98018.66;;;-2.02;100.00
21545;BME280;10933;50.754;11.508;2024-02-26T03:08:01;98021.69;;;-2.05;100.00
21545;BME280;10933;50.754;11.508;2024-02-26T03:10:27;98022.50;;;-2.04;100.00
21545;BME280;10933;50.754;11.508;2024-02-26T03:12:54;98034.28;;;-2.07;100.00
21545;BME280;10933;50.754;11.508;2024-02-26T03:15:20;98029.00;;;-2.07;100.00
21545;BME280;10933;50.754;11.508;2024-02-26T03:17:46;98038.75;;;-2.08;100.00
21545;BME280;10933;50.754;11.508;2024-02-26T03:20:12;98036.72;;;-2.05;100.00
21545;BME280;10933;50.754;11.508;2024-02-26T03:22:41;98034.72;;;-2.10;100.00
21545;BME280;10933;50.754;11.508;2024-02-26T03:25:08;98040.41;;;-2.13;100.00
21545;BME280;10933;50.754;11.508;2024-02-26T03:27:34;98050.38;;;-2.15;100.00
21545;BME280;10933;50.754;11.508;2024-02-26T03:30:00;98044.06;;;-2.14;100.00
21545;BME280;10933;50.754;11.508;2024-02-26T03:32:26;98046.28;;;-2.11;100.00
21545;BME280;10933;50.754;11.508;2024-02-26T03:34:52;98048.94;;;-2.11;100.00
21545;BME280;10933;50.754;11.508;2024-02-26T03:37:20;98042.47;;;-2.15;100.00
21545;BME280;10933;50.754;11.508;2024-02-26T03:39:46;98044.47;;;-2.11;100.00
21545;BME280;10933;50.754;11.508;2024-02-26T03:42:13;98043.25;;;-2.15;100.00
21545;BME280;10933;50.754;11.508;2024-02-26T03:44:39;98051.38;;;-2.10;100.00
21545;BME280;10933;50.754;11.508;2024-02-26T03:47:05;98050.13;;;-2.07;100.00
21545;BME280;10933;50.754;11.508;2024-02-26T03:49:31;98051.16;;;-2.01;100.00
21545;BME280;10933;50.754;11.508;2024-02-26T03:51:57;98057.03;;;-2.06;100.00
21545;BME280;10933;50.754;11.508;2024-02-26T03:54:23;98040.03;;;-2.23;100.00
21545;BME280;10933;50.754;11.508;2024-02-26T03:56:49;98052.00;;;-2.14;100.00
21545;BME280;10933;50.754;11.508;2024-02-26T03:59:15;98058.31;;;-2.15;100.00
21545;BME280;10933;50.754;11.508;2024-02-26T04:01:46;98055.03;;;-2.11;100.00
21545;BME280;10933;50.754;11.508;2024-02-26T04:04:13;98058.88;;;-2.00;100.00
21545;BME280;10933;50.754;11.508;2024-02-26T04:06:39;98056.22;;;-2.00;100.00
21545;BME280;10933;50.754;11.508;2024-02-26T04:09:05;98059.94;;;-2.27;100.00
21545;BME280;10933;50.754;11.508;2024-02-26T04:11:31;98067.63;;;-2.06;100.00
21545;BME280;10933;50.754;11.508;2024-02-26T04:13:57;98074.91;;;-1.95;100.00
21545;BME280;10933;50.754;11.508;2024-02-26T04:16:23;98073.25;;;-1.83;100.00
21545;BME280;10933;50.754;11.508;2024-02-26T04:18:49;98074.06;;;-1.82;100.00
21545;BME280;10933;50.754;11.508;2024-02-26T04:21:15;98074.88;;;-1.82;100.00
21545;BME280;10933;50.754;11.508;2024-02-26T04:23:41;98078.31;;;-1.74;100.00
21545;BME280;10933;50.754;11.508;2024-02-26T04:26:07;98065.91;;;-1.81;100.00
21545;BME280;10933;50.754;11.508;2024-02-26T04:28:34;98068.03;;;-2.09;100.00
21545;BME280;10933;50.754;11.508;2024-02-26T04:31:00;98067.41;;;-2.04;100.00
21545;BME280;10933;50.754;11.508;2024-02-26T04:33:26;98057.03;;;-2.06;100.00
21545;BME280;10933;50.754;11.508;2024-02-26T04:35:52;98068.25;;;-2.11;100.00
21545;BME280;10933;50.754;11.508;2024-02-26T04:38:20;98074.88;;;-1.75;100.00
21545;BME280;10933;50.754;11.508;2024-02-26T04:40:46;98080.94;;;-1.68;100.00
21545;BME280;10933;50.754;11.508;2024-02-26T04:43:12;98077.47;;;-1.62;100.00
21545;BME280;10933;50.754;11.508;2024-02-26T04:45:39;98071.97;;;-1.67;100.00
21545;BME280;10933;50.754;11.508;2024-02-26T04:48:05;98074.03;;;-1.69;100.00
21545;BME280;10933;50.754;11.508;2024-02-26T04:50:31;98072.44;;;-1.76;100.00
21545;BME280;10933;50.754;11.508;2024-02-26T04:52:57;98078.94;;;-1.72;100.00
21545;BME280;10933;50.754;11.508;2024-02-26T04:55:23;98077.31;;;-1.73;100.00
21545;BME280;10933;50.754;11.508;2024-02-26T04:57:49;98073.47;;;-1.77;100.00
21545;BME280;10933;50.754;11.508;2024-02-26T05:00:16;98068.44;;;-1.99;100.00
21545;BME280;10933;50.754;11.508;2024-02-26T05:02:42;98069.16;;;-1.79;100.00
21545;BME280;10933;50.754;11.508;2024-02-26T05:05:08;98059.22;;;-1.83;100.00
21545;BME280;10933;50.754;11.508;2024-02-26T05:07:39;98056.63;;;-1.96;100.00
21545;BME280;10933;50.754;11.508;2024-02-26T05:10:06;98063.28;;;-1.81;100.00
21545;BME280;10933;50.754;11.508;2024-02-26T05:12:32;98063.44;;;-1.69;100.00
21545;BME280;10933;50.754;11.508;2024-02-26T05:15:01;98060.25;;;-1.91;100.00
21545;BME280;10933;50.754;11.508;2024-02-26T05:17:28;98070.44;;;-1.94;100.00
21545;BME280;10933;50.754;11.508;2024-02-26T05:19:54;98069.22;;;-2.05;100.00
21545;BME280;10933;50.754;11.508;2024-02-26T05:22:20;98080.13;;;-1.62;100.00
21545;BME280;10933;50.754;11.508;2024-02-26T05:24:46;98078.72;;;-1.64;100.00
21545;BME280;10933;50.754;11.508;2024-02-26T05:27:12;98083.34;;;-1.60;100.00
21545;BME280;10933;50.754;11.508;2024-02-26T05:29:38;98088.22;;;-1.57;100.00
21545;BME280;10933;50.754;11.508;2024-02-26T05:32:05;98098.03;;;-1.70;100.00
21545;BME280;10933;50.754;11.508;2024-02-26T05:34:32;98100.03;;;-1.66;100.00
21545;BME280;10933;50.754;11.508;2024-02-26T05:36:59;98098.00;;;-1.57;100.00
21545;BME280;10933;50.754;11.508;2024-02-26T05:39:25;98094.31;;;-1.50;100.00
21545;BME280;10933;50.754;11.508;2024-02-26T05:41:51;98094.53;;;-1.51;100.00
21545;BME280;10933;50.754;11.508;2024-02-26T05:44:17;98094.09;;;-1.48;100.00
21545;BME280;10933;50.754;11.508;2024-02-26T05:46:43;98086.38;;;-1.56;100.00
21545;BME280;10933;50.754;11.508;2024-02-26T05:49:09;98089.41;;;-1.46;100.00
21545;BME280;10933;50.754;11.508;2024-02-26T05:51:35;98084.00;;;-1.20;100.00
21545;BME280;10933;50.754;11.508;2024-02-26T05:54:02;98076.13;;;-1.33;100.00
21545;BME280;10933;50.754;11.508;2024-02-26T05:56:28;98073.31;;;-1.38;100.00
21545;BME280;10933;50.754;11.508;2024-02-26T05:58:54;98072.28;;;-1.37;100.00
21545;BME280;10933;50.754;11.508;2024-02-26T06:01:20;98074.94;;;-1.37;100.00
21545;BME280;10933;50.754;11.508;2024-02-26T06:03:46;98078.41;;;-1.43;100.00
21545;BME280;10933;50.754;11.508;2024-02-26T06:06:12;98080.63;;;-1.40;100.00
21545;BME280;10933;50.754;11.508;2024-02-26T06:08:40;98085.25;;;-1.29;100.00
21545;BME280;10933;50.754;11.508;2024-02-26T06:11:07;98090.31;;;-1.27;100.00
21545;BME280;10933;50.754;11.508;2024-02-26T06:13:34;98094.28;;;-1.43;100.00
21545;BME280;10933;50.754;11.508;2024-02-26T06:16:00;98093.88;;;-1.46;100.00
21545;BME280;10933;50.754;11.508;2024-02-26T06:18:26;98095.44;;;-1.32;100.00
21545;BME280;10933;50.754;11.508;2024-02-26T06:20:52;98096.09;;;-1.37;100.00
21545;BME280;10933;50.754;11.508;2024-02-26T06:23:18;98092.16;;;-1.21;100.00
21545;BME280;10933;50.754;11.508;2024-02-26T06:25:44;98086.63;;;-1.20;100.00
21545;BME280;10933;50.754;11.508;2024-02-26T06:28:10;98082.34;;;-1.14;100.00
21545;BME280;10933;50.754;11.508;2024-02-26T06:30:36;98081.13;;;-1.18;100.00
21545;BME280;10933;50.754;11.508;2024-02-26T06:33:03;98077.16;;;-1.34;100.00
21545;BME280;10933;50.754;11.508;2024-02-26T06:35:29;98088.97;;;-1.43;100.00
21545;BME280;10933;50.754;11.508;2024-02-26T06:37:55;98089.72;;;-1.29;100.00
21545;BME280;10933;50.754;11.508;2024-02-26T06:40:21;98092.47;;;-1.04;100.00
21545;BME280;10933;50.754;11.508;2024-02-26T06:42:48;98089.25;;;-1.13;100.00
21545;BME280;10933;50.754;11.508;2024-02-26T06:45:14;98091.56;;;-0.92;100.00
21545;BME280;10933;50.754;11.508;2024-02-26T06:47:40;98089.63;;;-0.71;100.00
21545;BME280;10933;50.754;11.508;2024-02-26T06:50:06;98086.72;;;-0.95;100.00
21545;BME280;10933;50.754;11.508;2024-02-26T06:52:32;98085.81;;;-0.82;100.00
21545;BME280;10933;50.754;11.508;2024-02-26T06:54:58;98096.38;;;-0.75;100.00
21545;BME280;10933;50.754;11.508;2024-02-26T06:57:24;98095.59;;;-0.82;100.00
21545;BME280;10933;50.754;11.508;2024-02-26T06:59:51;98106.53;;;-0.72;100.00
21545;BME280;10933;50.754;11.508;2024-02-26T07:02:18;98101.75;;;-0.88;100.00
21545;BME280;10933;50.754;11.508;2024-02-26T07:04:44;98103.63;;;-0.96;100.00
21545;BME280;10933;50.754;11.508;2024-02-26T07:07:10;98103.44;;;-1.01;100.00
21545;BME280;10933;50.754;11.508;2024-02-26T07:09:36;98115.19;;;-0.90;100.00
21545;BME280;10933;50.754;11.508;2024-02-26T07:12:02;98106.91;;;-0.69;100.00
21545;BME280;10933;50.754;11.508;2024-02-26T07:14:29;98103.59;;;-0.64;100.00
21545;BME280;10933;50.754;11.508;2024-02-26T07:16:55;98101.06;;;-0.52;100.00
21545;BME280;10933;50.754;11.508;2024-02-26T07:19:21;98091.72;;;-0.55;100.00
21545;BME280;10933;50.754;11.508;2024-02-26T07:21:47;98093.75;;;-0.50;100.00
21545;BME280;10933;50.754;11.508;2024-02-26T07:24:13;98095.88;;;-0.16;100.00
21545;BME280;10933;50.754;11.508;2024-02-26T07:26:40;98089.09;;;-0.30;100.00
21545;BME280;10933;50.754;11.508;2024-02-26T07:29:06;98097.69;;;-0.10;100.00
21545;BME280;10933;50.754;11.508;2024-02-26T07:31:32;98092.09;;;-0.02;100.00
21545;BME280;10933;50.754;11.508;2024-02-26T07:33:59;98093.63;;;-0.12;100.00
21545;BME280;10933;50.754;11.508;2024-02-26T07:36:25;98085.94;;;0.05;100.00
21545;BME280;10933;50.754;11.508;2024-02-26T07:38:52;98089.25;;;0.00;100.00
21545;BME280;10933;50.754;11.508;2024-02-26T07:41:20;98087.91;;;0.09;100.00
21545;BME280;10933;50.754;11.508;2024-02-26T07:43:46;98092.56;;;0.32;100.00
21545;BME280;10933;50.754;11.508;2024-02-26T07:46:13;98089.03;;;0.56;100.00
21545;BME280;10933;50.754;11.508;2024-02-26T07:48:39;98088.59;;;0.59;100.00
21545;BME280;10933;50.754;11.508;2024-02-26T07:51:05;98094.03;;;0.46;100.00
21545;BME280;10933;50.754;11.508;2024-02-26T07:53:31;98097.88;;;0.69;100.00
21545;BME280;10933;50.754;11.508;2024-02-26T07:55:57;98101.47;;;0.74;100.00
21545;BME280;10933;50.754;11.508;2024-02-26T07:58:24;98093.38;;;0.69;100.00
21545;BME280;10933;50.754;11.508;2024-02-26T08:00:50;98090.03;;;0.92;100.00
21545;BME280;10933;50.754;11.508;2024-02-26T08:03:16;98088.13;;;0.81;100.00
21545;BME280;10933;50.754;11.508;2024-02-26T08:05:42;98091.53;;;0.70;100.00
21545;BME280;10933;50.754;11.508;2024-02-26T08:08:09;98094.91;;;0.58;100.00
21545;BME280;10933;50.754;11.508;2024-02-26T08:10:35;98095.50;;;0.24;100.00
21545;BME280;10933;50.754;11.508;2024-02-26T08:13:01;98108.63;;;0.74;100.00
21545;BME280;10933;50.754;11.508;2024-02-26T08:15:34;98102.88;;;0.58;100.00
21545;BME280;10933;50.754;11.508;2024-02-26T08:18:01;98102.31;;;0.86;100.00
21545;BME280;10933;50.754;11.508;2024-02-26T08:20:30;98102.25;;;0.93;100.00
21545;BME280;10933;50.754;11.508;2024-02-26T08:22:57;98104.50;;;0.78;100.00
21545;BME280;10933;50.754;11.508;2024-02-26T08:25:24;98105.81;;;0.69;100.00
21545;BME280;10933;50.754;11.508;2024-02-26T08:27:50;98103.19;;;1.29;100.00
21545;BME280;10933;50.754;11.508;2024-02-26T08:30:16;98102.03;;;1.78;100.00
21545;BME280;10933;50.754;11.508;2024-02-26T08:32:47;98098.97;;;1.09;100.00
21545;BME280;10933;50.754;11.508;2024-02-26T08:35:13;98111.56;;;0.84;100.00
21545;BME280;10933;50.754;11.508;2024-02-26T08:37:39;98109.19;;;0.94;100.00
21545;BME280;10933;50.754;11.508;2024-02-26T08:40:07;98113.63;;;0.82;100.00
21545;BME280;10933;50.754;11.508;2024-02-26T08:42:33;98112.53;;;0.71;100.00
21545;BME280;10933;50.754;11.508;2024-02-26T08:44:59;98105.38;;;0.90;100.00
21545;BME280;10933;50.754;11.508;2024-02-26T08:47:27;98102.38;;;0.98;100.00
21545;BME280;10933;50.754;11.508;2024-02-26T08:49:54;98109.75;;;1.14;100.00
21545;BME280;10933;50.754;11.508;2024-02-26T08:52:20;98106.94;;;1.09;100.00
21545;BME280;10933;50.754;11.508;2024-02-26T08:54:48;98101.03;;;1.07;100.00
21545;BME280;10933;50.754;11.508;2024-02-26T08:57:14;98101.22;;;0.94;100.00
21545;BME280;10933;50.754;11.508;2024-02-26T08:59:40;98100.59;;;1.10;100.00
21545;BME280;10933;50.754;11.508;2024-02-26T09:02:07;98092.03;;;1.08;100.00
21545;BME280;10933;50.754;11.508;2024-02-26T09:04:34;98098.78;;;1.23;100.00
21545;BME280;10933;50.754;11.508;2024-02-26T09:07:01;98087.88;;;1.12;100.00
21545;BME280;10933;50.754;11.508;2024-02-26T09:09:28;98089.16;;;1.10;100.00
21545;BME280;10933;50.754;11.508;2024-02-26T09:11:54;98095.28;;;1.10;100.00
21545;BME280;10933;50.754;11.508;2024-02-26T09:14:21;98103.63;;;1.26;100.00
21545;BME280;10933;50.754;11.508;2024-02-26T09:16:47;98108.56;;;1.52;100.00
21545;BME280;10933;50.754;11.508;2024-02-26T09:19:14;98119.84;;;2.13;100.00
21545;BME280;10933;50.754;11.508;2024-02-26T09:21:44;98109.75;;;2.50;100.00
21545;BME280;10933;50.754;11.508;2024-02-26T09:24:11;98110.81;;;2.14;100.00
21545;BME280;10933;50.754;11.508;2024-02-26T09:26:38;98107.91;;;2.15;100.00
21545;BME280;10933;50.754;11.508;2024-02-26T09:29:04;98106.72;;;2.58;100.00
21545;BME280;10933;50.754;11.508;2024-02-26T09:31:31;98098.19;;;2.56;100.00
21545;BME280;10933;50.754;11.508;2024-02-26T09:33:57;98102.19;;;2.70;100.00
21545;BME280;10933;50.754;11.508;2024-02-26T09:36:23;98090.78;;;3.15;100.00
21545;BME280;10933;50.754;11.508;2024-02-26T09:38:49;98088.34;;;2.97;100.00
21545;BME280;10933;50.754;11.508;2024-02-26T09:41:16;98092.81;;;3.70;100.00
21545;BME280;10933;50.754;11.508;2024-02-26T09:43:44;98089.41;;;4.08;100.00
21545;BME280;10933;50.754;11.508;2024-02-26T09:46:13;98098.78;;;3.43;100.00
21545;BME280;10933;50.754;11.508;2024-02-26T09:48:43;98111.84;;;4.29;100.00
21545;BME280;10933;50.754;11.508;2024-02-26T09:51:11;98107.38;;;3.96;100.00
21545;BME280;10933;50.754;11.508;2024-02-26T09:53:38;98110.03;;;4.51;100.00
21545;BME280;10933;50.754;11.508;2024-02-26T09:56:08;98120.94;;;4.11;100.00
21545;BME280;10933;50.754;11.508;2024-02-26T09:58:35;98115.50;;;4.61;100.00
21545;BME280;10933;50.754;11.508;2024-02-26T10:01:03;98132.59;;;4.22;100.00
21545;BME280;10933;50.754;11.508;2024-02-26T10:03:38;98148.34;;;4.06;100.00
21545;BME280;10933;50.754;11.508;2024-02-26T10:06:04;98157.09;;;3.85;100.00
21545;BME280;10933;50.754;11.508;2024-02-26T10:08:32;98147.78;;;4.04;100.00
21545;BME280;10933;50.754;11.508;2024-02-26T10:10:58;98158.25;;;3.61;100.00
21545;BME280;10933;50.754;11.508;2024-02-26T10:13:24;98140.50;;;4.00;100.00
21545;BME280;10933;50.754;11.508;2024-02-26T10:15:51;98145.84;;;3.83;100.00
21545;BME280;10933;50.754;11.508;2024-02-26T10:18:17;98152.38;;;3.92;100.00
21545;BME280;10933;50.754;11.508;2024-02-26T10:21:02;98148.91;;;4.25;100.00
21545;BME280;10933;50.754;11.508;2024-02-26T10:23:28;98154.81;;;5.31;100.00
21545;BME280;10933;50.754;11.508;2024-02-26T10:25:55;98165.69;;;5.47;100.00
21545;BME280;10933;50.754;11.508;2024-02-26T10:28:22;98168.44;;;5.84;100.00
21545;BME280;10933;50.754;11.508;2024-02-26T10:30:48;98188.56;;;6.51;100.00
21545;BME280;10933;50.754;11.508;2024-02-26T10:33:15;98206.78;;;6.91;100.00
21545;BME280;10933;50.754;11.508;2024-02-26T10:35:46;98244.72;;;7.92;100.00
21545;BME280;10933;50.754;11.508;2024-02-26T10:38:12;98255.19;;;6.74;100.00
21545;BME280;10933;50.754;11.508;2024-02-26T10:40:39;98266.22;;;6.83;100.00
21545;BME280;10933;50.754;11.508;2024-02-26T10:43:05;98277.16;;;6.44;100.00
21545;BME280;10933;50.754;11.508;2024-02-26T10:45:32;98280.28;;;5.82;100.00
21545;BME280;10933;50.754;11.508;2024-02-26T10:47:59;98260.81;;;5.86;100.00
21545;BME280;10933;50.754;11.508;2024-02-26T10:50:26;98270.59;;;6.57;100.00
21545;BME280;10933;50.754;11.508;2024-02-26T10:52:52;98272.53;;;6.34;100.00
21545;BME280;10933;50.754;11.508;2024-02-26T10:55:22;98265.03;;;6.68;100.00
21545;BME280;10933;50.754;11.508;2024-02-26T10:57:49;98278.19;;;7.64;100.00
21545;BME280;10933;50.754;11.508;2024-02-26T11:00:18;98298.75;;;8.16;100.00
21545;BME280;10933;50.754;11.508;2024-02-26T11:02:45;98311.16;;;7.55;100.00
21545;BME280;10933;50.754;11.508;2024-02-26T11:05:15;98316.38;;;7.87;100.00
21545;BME280;10933;50.754;11.508;2024-02-26T11:07:42;98315.31;;;7.25;100.00
21545;BME280;10933;50.754;11.508;2024-02-26T11:10:09;98330.44;;;8.19;100.00
21545;BME280;10933;50.754;11.508;2024-02-26T11:12:38;98326.72;;;7.58;100.00
21545;BME280;10933;50.754;11.508;2024-02-26T11:15:05;98325.34;;;7.03;100.00
21545;BME280;10933;50.754;11.508;2024-02-26T11:17:32;98311.78;;;6.83;100.00
21545;BME280;10933;50.754;11.508;2024-02-26T11:20:01;98303.84;;;6.61;100.00
21545;BME280;10933;50.754;11.508;2024-02-26T11:22:28;98291.91;;;6.73;100.00
21545;BME280;10933;50.754;11.508;2024-02-26T11:24:56;98299.69;;;6.80;100.00
21545;BME280;10933;50.754;11.508;2024-02-26T11:27:29;98302.56;;;6.68;100.00
21545;BME280;10933;50.754;11.508;2024-02-26T11:29:57;98300.03;;;6.89;100.00
21545;BME280;10933;50.754;11.508;2024-02-26T11:32:27;98297.28;;;7.16;100.00
21545;BME280;10933;50.754;11.508;2024-02-26T11:34:56;98312.09;;;7.33;100.00
21545;BME280;10933;50.754;11.508;2024-02-26T11:37:23;98320.44;;;8.00;100.00
21545;BME280;10933;50.754;11.508;2024-02-26T11:39:52;98333.66;;;8.16;100.00
21545;BME280;10933;50.754;11.508;2024-02-26T11:42:23;98344.22;;;8.43;100.00
21545;BME280;10933;50.754;11.508;2024-02-26T11:44:51;98357.41;;;8.60;100.00
21545;BME280;10933;50.754;11.508;2024-02-26T11:47:22;98363.44;;;8.05;100.00
21545;BME280;10933;50.754;11.508;2024-02-26T11:49:48;98365.28;;;7.89;100.00
21545;BME280;10933;50.754;11.508;2024-02-26T11:52:15;98362.47;;;7.68;100.00
21545;BME280;10933;50.754;11.508;2024-02-26T11:54:52;98366.19;;;8.25;100.00
21545;BME280;10933;50.754;11.508;2024-02-26T11:57:29;98374.91;;;7.85;100.00
21545;BME280;10933;50.754;11.508;2024-02-26T11:59:56;98365.22;;;7.79;100.00
21545;BME280;10933;50.754;11.508;2024-02-26T12:02:59;98359.53;;;7.70;100.00
21545;BME280;10933;50.754;11.508;2024-02-26T12:05:34;98360.44;;;7.96;100.00
21545;BME280;10933;50.754;11.508;2024-02-26T12:08:04;98360.06;;;8.35;100.00
21545;BME280;10933;50.754;11.508;2024-02-26T12:10:34;98375.31;;;8.14;100.00
21545;BME280;10933;50.754;11.508;2024-02-26T12:13:07;98382.78;;;8.02;100.00
21545;BME280;10933;50.754;11.508;2024-02-26T12:15:37;98372.34;;;8.15;100.00
21545;BME280;10933;50.754;11.508;2024-02-26T12:18:05;98363.22;;;8.16;100.00
21545;BME280;10933;50.754;11.508;2024-02-26T12:20:32;98364.81;;;8.17;100.00
21545;BME280;10933;50.754;11.508;2024-02-26T12:22:58;98366.47;;;8.29;100.00
21545;BME280;10933;50.754;11.508;2024-02-26T12:25:27;98368.34;;;8.33;100.00
21545;BME280;10933;50.754;11.508;2024-02-26T12:27:54;98375.16;;;8.61;100.00
21545;BME280;10933;50.754;11.508;2024-02-26T12:30:21;98371.94;;;8.69;100.00
21545;BME280;10933;50.754;11.508;2024-02-26T12:32:51;98385.41;;;8.69;100.00
21545;BME280;10933;50.754;11.508;2024-02-26T12:35:18;98386.97;;;8.50;100.00
21545;BME280;10933;50.754;11.508;2024-02-26T12:37:44;98379.22;;;8.84;100.00
21545;BME280;10933;50.754;11.508;2024-02-26T12:40:11;98385.41;;;8.64;100.00
21545;BME280;10933;50.754;11.508;2024-02-26T12:42:38;98391.31;;;9.02;100.00